Time;durP1;ratioP1;P1;durP2;ratioP2;P2;SDS_P1;SDS_P2;PMS_P1;PMS_P2;Temp;Humidity;BMP_temperature;BMP_pressure;BME280_temperature;BME280_humidity;BME280_pressure;Samples;Min_cycle;Max_cycle;Signal;HPM_P1;HPM_P2
2022/10/14 00:06:16;;;;;;;6.37;3.93;;;;;;;20.80;60.90;63391.09;17318422;28;20227;-31
2022/10/14 00:14:33;;;;;;;8.57;3.90;;;;;;;20.80;60.70;63393.72;17345891;28;20217;-32
2022/10/14 00:22:51;;;;;;;5.57;3.47;;;;;;;20.79;60.72;63389.97;17347705;28;20231;-31
2022/10/14 00:31:08;;;;;;;5.87;3.53;;;;;;;20.78;60.76;63391.47;17348036;28;20224;-31
2022/10/14 00:39:26;;;;;;;7.53;3.57;;;;;;;20.75;60.70;63390.16;17353108;28;20217;-31
2022/10/14 00:47:44;;;;;;;8.07;4.40;;;;;;;20.76;60.71;63391.28;17353141;28;20226;-32
2022/10/14 00:56:02;;;;;;;5.10;3.03;;;;;;;20.74;60.80;63386.97;17348813;28;20215;-31
2022/10/14 01:04:19;;;;;;;5.90;3.30;;;;;;;20.74;60.83;63386.97;17349065;28;20199;-31
2022/10/14 01:12:51;;;;;;;6.53;3.60;;;;;;;20.75;60.74;63384.91;17375458;28;20227;-31
2022/10/14 01:21:15;;;;;;;8.17;3.80;;;;;;;20.73;60.77;63388.44;17341082;28;20216;-32
2022/10/14 01:30:01;;;;;;;5.60;3.23;;;;;;;20.75;60.57;63388.09;17346785;28;20320;-32
2022/10/14 01:38:23;;;;;;;8.07;4.03;;;;;;;20.74;60.80;63386.97;17356692;28;20212;-31
2022/10/14 01:46:47;;;;;;;5.13;3.33;;;;;;;20.74;60.65;63389.03;17353119;28;20228;-32
2022/10/14 01:55:08;;;;;;;5.37;3.47;;;;;;;20.73;60.62;63383.19;17357278;28;20216;-31
2022/10/14 02:03:26;;;;;;;7.07;3.43;;;;;;;20.72;60.75;63389.38;17365189;28;20239;-31
2022/10/14 02:11:48;;;;;;;5.10;3.10;;;;;;;20.69;60.80;63386.56;17344433;28;20224;-31
2022/10/14 02:20:16;;;;;;;5.37;3.40;;;;;;;20.69;60.61;63381.31;17362934;28;20265;-31
2022/10/14 02:28:34;;;;;;;7.10;3.53;;;;;;;20.70;60.70;63384.50;17364845;28;20224;-31
2022/10/14 02:36:54;;;;;;;6.40;3.00;;;;;;;20.67;60.72;63377.00;17347701;28;20223;-31
2022/10/14 02:45:13;;;;;;;5.17;2.70;;;;;;;20.66;60.75;63381.13;17363811;28;20196;-30
2022/10/14 02:53:31;;;;;;;6.03;3.30;;;;;;;20.64;60.63;63378.31;17360984;28;20212;-30
2022/10/14 03:01:48;;;;;;;5.10;2.77;;;;;;;20.62;60.76;63376.06;17352029;28;20232;-31
2022/10/14 03:10:07;;;;;;;5.77;3.13;;;;;;;20.61;60.76;63372.84;17393703;22;20247;-32
2022/10/14 03:18:24;;;;;;;5.17;3.20;;;;;;;20.61;60.78;63372.84;17283759;28;20351;-33
2022/10/14 03:26:42;;;;;;;5.07;2.90;;;;;;;20.60;60.77;63376.41;17281458;28;20212;-34
2022/10/14 03:34:59;;;;;;;6.30;3.27;;;;;;;20.59;60.82;63378.50;17295472;28;20603;-34
2022/10/14 03:43:17;;;;;;;4.73;2.73;;;;;;;20.59;60.75;63373.25;17284436;28;20586;-34
2022/10/14 03:51:34;;;;;;;5.20;3.20;;;;;;;20.59;60.74;63372.69;17298442;28;20772;-34
2022/10/14 03:59:52;;;;;;;4.43;2.83;;;;;;;20.57;60.64;63365.72;17293771;28;20595;-34
2022/10/14 04:08:09;;;;;;;6.53;2.73;;;;;;;20.57;60.78;63370.41;17286083;28;20557;-34
2022/10/14 04:16:27;;;;;;;5.80;3.10;;;;;;;20.58;60.67;63361.59;17299758;28;20613;-34
2022/10/14 04:24:44;;;;;;;5.27;3.33;;;;;;;20.64;60.51;63375.66;17300549;28;20582;-34
2022/10/14 04:33:02;;;;;;;4.80;2.67;;;;;;;20.63;60.49;63377.19;17289954;28;20224;-34
2022/10/14 04:41:19;;;;;;;4.67;2.90;;;;;;;20.53;60.75;63371.72;17287990;28;20614;-34
2022/10/14 04:49:37;;;;;;;5.70;2.70;;;;;;;20.53;60.56;63363.25;17298802;28;20776;-34
2022/10/14 04:57:54;;;;;;;4.33;2.60;;;;;;;20.53;60.47;63363.25;17288784;28;20673;-34
2022/10/14 05:06:12;;;;;;;4.37;2.57;;;;;;;20.51;60.56;63358.38;17279756;28;20576;-34
2022/10/14 05:14:29;;;;;;;6.23;3.50;;;;;;;20.50;60.58;63365.69;17296079;28;20589;-34
2022/10/14 05:22:47;;;;;;;5.73;2.77;;;;;;;20.49;60.55;63361.38;17291013;28;20883;-34
2022/10/14 05:31:05;;;;;;;5.40;2.80;;;;;;;20.47;60.55;63354.44;17289448;28;20696;-36
2022/10/14 05:39:23;;;;;;;5.27;3.00;;;;;;;20.48;60.43;63360.81;17297796;28;20785;-34
2022/10/14 05:47:40;;;;;;;4.60;2.80;;;;;;;20.52;60.48;63365.34;17299264;28;20708;-34
2022/10/14 05:56:03;;;;;;;6.10;3.23;;;;;;;20.59;60.21;63370.59;17288018;28;20926;-34
2022/10/14 06:04:21;;;;;;;6.10;1.33;;;;;;;18.21;62.70;63110.72;17292945;28;20696;-34
2022/10/14 06:12:39;;;;;;;5.00;1.50;;;;;;;17.81;64.33;63071.53;17304552;28;20227;-34
2022/10/14 06:20:56;;;;;;;5.53;1.37;;;;;;;19.50;59.83;63247.34;17293312;28;20228;-34
2022/10/14 06:29:14;;;;;;;4.43;1.47;;;;;;;19.86;59.68;63290.00;17291083;28;20696;-34
2022/10/14 06:37:31;;;;;;;3.57;1.57;;;;;;;20.07;59.64;63318.34;17296334;28;20205;-34
2022/10/14 06:45:49;;;;;;;7.33;1.23;;;;;;;20.16;59.87;63325.28;17297867;28;20212;-34
2022/10/14 06:54:07;;;;;;;8.83;1.80;;;;;;;20.29;60.40;63339.38;17295547;28;20279;-34
2022/10/14 07:02:25;;;;;;;7.83;1.63;;;;;;;20.33;60.34;63339.22;17308475;28;20317;-34
2022/10/14 07:10:42;;;;;;;7.07;1.63;;;;;;;20.37;60.39;63348.97;17300089;28;20225;-34
2022/10/14 07:19:00;;;;;;;6.07;1.50;;;;;;;20.41;60.77;63355.56;17299365;28;20228;-34
2022/10/14 07:27:19;;;;;;;9.60;1.83;;;;;;;20.48;60.81;63360.25;17278328;28;20722;-34
2022/10/14 07:35:39;;;;;;;4.57;1.37;;;;;;;20.55;60.95;63373.41;17310278;28;20275;-33
2022/10/14 07:44:00;;;;;;;7.50;1.70;;;;;;;20.59;61.10;63372.69;17275262;28;20252;-34
2022/10/14 07:52:19;;;;;;;6.70;1.30;;;;;;;20.61;61.33;63374.91;17292789;28;20221;-34
2022/10/14 08:00:37;;;;;;;3.37;1.30;;;;;;;20.67;61.29;63382.25;17298411;28;20229;-32
2022/10/14 08:08:55;;;;;;;3.63;1.30;;;;;;;20.72;61.56;63389.94;17302507;28;20235;-33
2022/10/14 08:17:12;;;;;;;6.03;1.70;;;;;;;20.75;61.84;63390.16;17295458;28;20291;-34
2022/10/14 08:25:30;;;;;;;6.20;1.37;;;;;;;20.73;61.73;63385.25;17291329;28;20225;-34
2022/10/14 08:33:47;;;;;;;4.07;1.47;;;;;;;20.74;61.78;63386.97;17296121;28;20228;-34
2022/10/14 08:42:28;;;;;;;6.37;2.20;;;;;;;20.79;61.61;63389.41;17290470;28;20208;-36
2022/10/14 08:50:51;;;;;;;6.60;2.47;;;;;;;20.80;62.08;63393.72;17286928;28;20217;-34
2022/10/14 08:59:14;;;;;;;12.50;3.50;;;;;;;20.80;62.72;63396.34;17441271;22;20248;-32
2022/10/14 09:07:34;;;;;;;12.77;2.97;;;;;;;20.82;63.13;63396.00;17391695;28;20255;-29
2022/10/14 09:15:59;;;;;;;5.47;2.70;;;;;;;20.86;63.62;63400.50;17371132;22;20240;-34
2022/10/14 09:24:21;;;;;;;7.67;1.87;;;;;;;20.90;63.93;63402.38;17307820;28;20614;-35
2022/10/14 09:32:43;;;;;;;7.87;2.10;;;;;;;20.92;64.16;63406.69;17290370;28;20232;-36
2022/10/14 09:41:00;;;;;;;5.67;2.27;;;;;;;20.99;63.96;63417.22;17279324;28;20225;-35
2022/10/14 09:49:22;;;;;;;9.53;2.50;;;;;;;21.04;64.12;63420.22;17271995;28;20200;-33
2022/10/14 09:57:39;;;;;;;9.63;2.33;;;;;;;21.07;64.23;63431.50;17275619;28;20234;-34
2022/10/14 10:06:03;;;;;;;11.27;2.77;;;;;;;21.17;64.12;63436.94;17260033;28;20345;-34
2022/10/14 10:14:23;;;;;;;7.73;2.17;;;;;;;21.23;63.77;63443.72;17260089;28;20239;-34
2022/10/14 10:22:41;;;;;;;4.87;2.20;;;;;;;20.46;59.38;63356.47;17263490;28;20224;-36
2022/10/14 10:31:11;;;;;;;5.10;1.23;;;;;;;20.17;59.32;63329.03;17248817;28;20378;-34
2022/10/14 10:39:41;;;;;;;3.30;1.27;;;;;;;20.55;57.93;63366.09;17271835;28;20268;-34
2022/10/14 10:48:02;;;;;;;12.20;1.73;;;;;;;21.05;58.10;63423.41;17299041;28;20213;-34
2022/10/14 10:56:32;;;;;;;3.80;1.37;;;;;;;21.22;58.43;63442.03;17285597;28;20228;-35
2022/10/14 11:04:56;;;;;;;8.30;1.57;;;;;;;21.31;58.39;63452.75;17282222;28;20213;-34
2022/10/14 11:13:26;;;;;;;4.30;1.07;;;;;;;21.34;58.72;63453.50;17284747;28;20238;-34
2022/10/14 11:21:51;;;;;;;5.40;1.30;;;;;;;21.42;58.93;63461.44;17281014;28;20224;-35
2022/10/14 11:30:17;;;;;;;4.93;1.40;;;;;;;21.20;59.52;63437.72;17292645;28;20223;-33
2022/10/14 11:38:52;;;;;;;4.63;1.30;;;;;;;21.24;59.57;63444.88;17283606;28;20221;-34
2022/10/14 11:47:35;;;;;;;5.37;1.33;;;;;;;21.32;59.41;63450.69;17284940;28;20228;-35
2022/10/14 11:56:00;;;;;;;7.90;1.63;;;;;;;21.46;60.06;63463.31;17290575;28;20230;-34
2022/10/14 12:04:27;;;;;;;6.77;1.93;;;;;;;21.62;60.12;63486.63;17282474;28;20285;-34
2022/10/14 12:12:44;;;;;;;6.30;1.90;;;;;;;21.83;60.42;63509.19;17291685;28;20236;-34
2022/10/14 12:21:12;;;;;;;5.00;1.47;;;;;;;23.33;55.30;63672.66;17282629;28;20209;-34
2022/10/14 12:29:32;;;;;;;3.90;1.50;;;;;;;23.60;48.87;63700.56;17289624;28;20250;-34
2022/10/14 12:37:55;;;;;;;3.00;1.10;;;;;;;25.35;44.61;63896.75;17279460;28;20228;-34
2022/10/14 12:46:15;;;;;;;5.63;1.50;;;;;;;22.18;50.87;63543.50;17271792;28;20223;-33
2022/10/14 12:54:34;;;;;;;3.20;1.20;;;;;;;21.73;53.72;63504.31;17285485;28;20429;-33
2022/10/14 13:02:54;;;;;;;3.50;1.40;;;;;;;20.23;55.64;63327.94;17272191;28;20245;-34
2022/10/14 13:11:15;;;;;;;4.73;1.30;;;;;;;19.97;57.90;63305.00;17273677;28;20228;-33
2022/10/14 13:19:43;;;;;;;3.50;1.20;;;;;;;19.95;57.98;63299.56;17286639;28;20200;-35
2022/10/14 13:28:22;;;;;;;5.20;1.50;;;;;;;20.79;56.21;63394.66;17269465;28;20223;-33
2022/10/14 13:36:58;;;;;;;3.60;1.57;;;;;;;21.06;56.05;63419.28;17271662;28;20240;-33
2022/10/14 13:45:17;;;;;;;3.50;1.30;;;;;;;21.09;56.32;63423.25;17271306;28;20229;-33
2022/10/14 13:53:34;;;;;;;5.20;1.30;;;;;;;21.14;56.55;63434.13;17289164;28;20227;-33
2022/10/14 14:01:54;;;;;;;3.67;1.30;;;;;;;21.12;56.82;63426.06;17281673;28;20217;-33
2022/10/14 14:10:11;;;;;;;4.00;1.30;;;;;;;21.10;57.11;63429.06;17236503;28;75041;-33
2022/10/14 14:18:35;;;;;;;3.10;1.10;;;;;;;21.10;57.34;63429.06;17213354;28;20225;-33
2022/10/14 14:26:54;;;;;;;7.83;1.50;;;;;;;21.08;57.42;63421.53;17233040;28;20228;-33
2022/10/14 14:35:13;;;;;;;3.30;1.20;;;;;;;21.07;57.58;63423.06;17209659;28;20367;-33
2022/10/14 14:43:32;;;;;;;4.00;1.70;;;;;;;21.07;57.73;63423.63;17213423;28;20371;-33
2022/10/14 14:51:51;;;;;;;10.40;5.87;;;;;;;21.09;58.00;63427.94;17221890;28;20323;-33
2022/10/14 15:00:19;;;;;;;7.17;4.37;;;;;;;21.09;58.19;63425.31;17204265;28;20291;-35
2022/10/14 15:08:37;;;;;;;8.93;6.87;;;;;;;21.06;58.19;63419.28;17222117;28;20201;-33
2022/10/14 15:16:54;;;;;;;5.93;3.60;;;;;;;21.07;58.20;63425.69;17207970;28;20222;-33
2022/10/14 15:25:23;;;;;;;15.53;13.80;;;;;;;21.08;57.43;63424.72;17231803;28;20218;-33
2022/10/14 15:33:40;;;;;;;10.90;7.73;;;;;;;21.14;58.00;63433.56;17219498;28;20311;-33
2022/10/14 15:42:01;;;;;;;21.23;11.30;;;;;;;21.16;58.58;63435.84;17218773;28;20223;-33
2022/10/14 15:50:20;;;;;;;13.67;10.80;;;;;;;21.15;58.85;63429.44;17223837;28;20233;-33
2022/10/14 15:58:39;;;;;;;14.07;11.17;;;;;;;21.17;59.26;63431.69;17216790;28;20205;-33
2022/10/14 16:06:56;;;;;;;15.60;11.80;;;;;;;21.18;59.85;63434.88;17213394;28;20225;-33
2022/10/14 16:15:27;;;;;;;21.80;15.97;;;;;;;21.22;59.78;63439.97;17214370;28;20241;-33
2022/10/14 16:23:44;;;;;;;25.07;20.60;;;;;;;21.31;60.50;63452.75;17208982;28;20221;-33
2022/10/14 16:32:03;;;;;;;28.10;23.00;;;;;;;21.27;60.62;63448.25;17215338;28;20229;-33
2022/10/14 16:40:20;;;;;;;29.03;25.57;;;;;;;21.30;60.79;63451.06;17213312;28;20221;-33
2022/10/14 16:48:38;;;;;;;52.80;44.83;;;;;;;21.30;61.37;63451.63;17203792;28;20208;-33
2022/10/14 16:56:55;;;;;;;44.60;39.60;;;;;;;21.30;61.27;63451.06;17210331;28;20237;-34
2022/10/14 17:05:14;;;;;;;45.77;40.63;;;;;;;21.31;61.26;63444.88;17209591;28;20351;-33
2022/10/14 17:13:31;;;;;;;44.43;39.40;;;;;;;21.32;61.40;63453.88;17202142;28;20229;-33
2022/10/14 17:21:49;;;;;;;43.33;35.80;;;;;;;21.33;61.58;63452.38;17206549;28;20237;-33
2022/10/14 17:30:07;;;;;;;43.63;38.97;;;;;;;21.37;62.01;63458.41;17218745;28;20221;-33
2022/10/14 17:38:27;;;;;;;50.13;42.27;;;;;;;21.38;62.03;63457.47;17191666;28;20294;-34
2022/10/14 17:46:44;;;;;;;29.30;24.60;;;;;;;20.85;61.56;63398.78;17208688;28;20264;-35
2022/10/14 17:55:02;;;;;;;11.97;5.07;;;;;;;18.93;65.36;63186.91;17189568;28;20251;-34
2022/10/14 18:03:19;;;;;;;8.40;4.23;;;;;;;19.90;62.67;63291.31;17212624;28;20218;-34
2022/10/14 18:11:41;;;;;;;10.40;8.10;;;;;;;20.73;60.15;63385.81;17206308;28;20229;-34
2022/10/14 18:19:58;;;;;;;19.60;14.80;;;;;;;20.89;60.59;63406.50;17205845;28;20224;-35
2022/10/14 18:28:17;;;;;;;20.10;17.20;;;;;;;20.99;60.88;63417.22;17216906;28;20201;-33
2022/10/14 18:36:34;;;;;;;9.20;7.23;;;;;;;21.08;61.38;63424.72;17217470;28;20230;-34
2022/10/14 18:44:52;;;;;;;7.23;4.50;;;;;;;19.49;62.57;63252.03;17216100;28;20221;-33
2022/10/14 18:53:09;;;;;;;6.73;2.53;;;;;;;18.65;65.50;63159.66;17219199;28;20225;-33
2022/10/14 19:01:27;;;;;;;5.47;1.60;;;;;;;18.29;66.52;63116.56;17215670;28;20226;-33
2022/10/14 19:09:44;;;;;;;4.00;2.00;;;;;;;19.93;61.06;63300.50;17220428;28;20209;-33
2022/10/14 19:18:02;;;;;;;5.43;2.07;;;;;;;20.32;59.99;63340.13;17218935;28;20275;-33
2022/10/14 19:26:22;;;;;;;3.57;1.50;;;;;;;20.43;59.54;63358.34;17219009;28;20225;-34
2022/10/14 19:34:49;;;;;;;4.13;1.93;;;;;;;20.49;59.38;63358.75;17231265;28;20462;-33
2022/10/14 19:43:06;;;;;;;8.23;1.80;;;;;;;20.50;59.50;63367.75;17213162;28;20213;-34
2022/10/14 19:51:24;;;;;;;3.93;1.63;;;;;;;20.52;59.42;63364.75;17217358;28;20237;-34
2022/10/14 19:59:41;;;;;;;5.87;1.60;;;;;;;20.53;59.49;63363.25;17214838;28;20490;-33
2022/10/14 20:08:00;;;;;;;5.07;1.70;;;;;;;20.52;59.46;63362.13;17216213;28;20201;-36
2022/10/14 20:16:17;;;;;;;6.10;1.70;;;;;;;20.53;59.62;63363.25;17223073;28;20233;-33
2022/10/14 20:24:38;;;;;;;3.63;1.50;;;;;;;20.52;59.60;63364.75;17203217;28;20225;-34
2022/10/14 20:32:55;;;;;;;6.37;1.83;;;;;;;20.50;59.75;63362.50;17208938;28;20304;-33
2022/10/14 20:41:16;;;;;;;3.70;1.50;;;;;;;20.51;59.64;63363.63;17209129;28;20222;-34
2022/10/14 20:49:33;;;;;;;5.60;1.80;;;;;;;20.49;59.68;63356.13;17210190;28;20224;-34
2022/10/14 20:57:51;;;;;;;4.33;1.60;;;;;;;20.51;59.70;63358.38;17284285;23;20233;-33
2022/10/14 21:06:10;;;;;;;4.80;1.60;;;;;;;20.57;59.70;63370.41;17144575;28;20232;-32
2022/10/14 21:14:28;;;;;;;5.50;2.07;;;;;;;20.57;59.89;63367.78;17109241;28;20218;-31
2022/10/14 21:22:45;;;;;;;3.30;1.60;;;;;;;20.55;59.64;63368.16;17107815;28;20214;-30
2022/10/14 21:31:06;;;;;;;3.50;1.60;;;;;;;20.56;59.78;63369.84;17101958;28;20744;-30
2022/10/14 21:39:23;;;;;;;3.97;1.77;;;;;;;20.53;59.75;63358.00;17105316;28;20231;-30
2022/10/14 21:47:42;;;;;;;4.27;1.50;;;;;;;20.53;59.89;63365.91;17104642;28;20364;-30
2022/10/14 21:55:59;;;;;;;3.70;1.80;;;;;;;20.55;59.65;63362.91;17091529;28;20241;-30
2022/10/14 22:04:17;;;;;;;3.73;1.60;;;;;;;20.56;59.76;63369.28;17099369;28;20796;-30
2022/10/14 22:12:34;;;;;;;4.57;1.90;;;;;;;20.55;59.59;63365.53;17103900;28;20222;-30
2022/10/14 22:21:02;;;;;;;3.70;1.50;;;;;;;20.52;59.77;63360.09;17099268;28;20309;-30
2022/10/14 22:29:19;;;;;;;4.10;1.70;;;;;;;20.52;59.86;63370.00;17101277;28;20740;-30
2022/10/14 22:37:37;;;;;;;4.70;1.70;;;;;;;20.51;59.89;63366.25;17100767;28;20310;-30
2022/10/14 22:45:59;;;;;;;4.20;1.80;;;;;;;20.52;59.87;63364.75;17105592;28;20209;-30
2022/10/14 22:54:18;;;;;;;9.73;2.27;;;;;;;20.52;59.72;63367.38;17116971;28;20342;-30
2022/10/14 23:02:35;;;;;;;4.40;1.93;;;;;;;20.50;59.75;63362.50;17109116;28;20262;-30
2022/10/14 23:10:53;;;;;;;3.90;1.70;;;;;;;20.48;59.90;63355.56;17101847;28;20875;-30
2022/10/14 23:19:10;;;;;;;4.30;1.67;;;;;;;20.46;59.97;63353.84;17107661;28;20233;-31
2022/10/14 23:27:28;;;;;;;3.97;1.60;;;;;;;20.44;59.95;63356.31;17116149;28;20229;-31
2022/10/14 23:35:45;;;;;;;4.20;2.07;;;;;;;20.45;60.08;63354.81;17120016;28;20237;-31
2022/10/14 23:44:03;;;;;;;4.60;1.93;;;;;;;20.43;60.04;63355.16;17113599;28;20282;-31
2022/10/14 23:52:20;;;;;;;4.30;1.60;;;;;;;20.42;60.04;63351.97;17093626;28;20224;-32
